createdAt,value
2019-05-14T00:01:03.733Z,6.29
2019-05-14T00:03:34.702Z,6.29
2019-05-14T00:06:07.764Z,6.33
2019-05-14T00:08:38.530Z,6.33
2019-05-14T00:11:09.572Z,6.45
2019-05-14T00:13:41.292Z,6.41
2019-05-14T00:16:12.418Z,6.43
2019-05-14T00:18:43.441Z,6.57
2019-05-14T00:21:14.685Z,6.68
2019-05-14T00:23:45.705Z,6.68
2019-05-14T00:26:16.477Z,6.64
2019-05-14T00:28:47.517Z,6.56
2019-05-14T00:31:21.185Z,6.53
2019-05-14T00:33:51.689Z,6.39
2019-05-14T00:36:22.583Z,6.35
2019-05-14T00:38:53.358Z,6.28
2019-05-14T00:41:24.099Z,6.23
2019-05-14T00:43:55.151Z,6.17
2019-05-14T00:46:25.869Z,6.14
2019-05-14T00:48:56.594Z,6.19
2019-05-14T00:51:27.844Z,6.28
2019-05-14T00:53:58.859Z,6.27
2019-05-14T00:56:32.122Z,6.32
2019-05-14T00:59:02.930Z,6.32
2019-05-14T01:01:34.173Z,6.41
2019-05-14T01:04:05.231Z,6.41
2019-05-14T01:06:36.343Z,6.40
2019-05-14T01:09:07.317Z,6.48
2019-05-14T01:11:38.302Z,6.46
2019-05-14T01:14:09.361Z,6.41
2019-05-14T01:16:42.251Z,6.40
2019-05-14T01:19:13.006Z,6.46
2019-05-14T01:21:43.900Z,6.44
2019-05-14T01:24:14.935Z,6.47
2019-05-14T01:26:45.988Z,6.40
2019-05-14T01:29:18.155Z,6.50
2019-05-14T01:31:49.140Z,6.33
2019-05-14T01:34:21.600Z,6.28
2019-05-14T01:36:53.045Z,6.39
2019-05-14T01:39:23.967Z,6.52
2019-05-14T01:41:54.921Z,6.54
2019-05-14T01:44:25.668Z,6.56
2019-05-14T01:46:56.411Z,6.67
2019-05-14T01:49:28.224Z,6.85
2019-05-14T01:51:59.034Z,6.92
2019-05-14T01:54:31.701Z,6.92
2019-05-14T01:57:02.606Z,7.06
2019-05-14T01:59:33.731Z,6.96
2019-05-14T02:02:04.945Z,7.01
2019-05-14T02:04:35.908Z,7.25
2019-05-14T02:07:07.263Z,7.29
2019-05-14T02:09:38.343Z,7.32
2019-05-14T02:12:11.451Z,7.38
2019-05-14T02:14:42.528Z,7.33
2019-05-14T02:17:13.583Z,7.30
2019-05-14T02:19:44.561Z,7.20
2019-05-14T02:22:15.791Z,7.07
2019-05-14T02:24:46.736Z,7.17
2019-05-14T02:27:17.472Z,7.13
2019-05-14T02:29:48.216Z,7.24
2019-05-14T02:32:19.493Z,7.36
2019-05-14T02:34:50.433Z,7.74
2019-05-14T02:37:21.226Z,7.78
2019-05-14T02:39:52.180Z,7.89
2019-05-14T02:42:22.909Z,7.82
2019-05-14T02:44:53.715Z,7.78
2019-05-14T02:47:24.696Z,7.80
2019-05-14T02:49:58.772Z,7.78
2019-05-14T02:52:29.202Z,7.76
2019-05-14T02:55:01.248Z,7.78
2019-05-14T02:57:32.486Z,7.95
2019-05-14T03:00:03.304Z,7.76
2019-05-14T03:02:34.292Z,7.69
2019-05-14T03:05:05.972Z,7.61
2019-05-14T03:07:39.401Z,7.74
2019-05-14T03:10:10.415Z,7.69
2019-05-14T03:12:41.736Z,7.80
2019-05-14T03:15:13.052Z,7.88
2019-05-14T03:17:43.857Z,7.82
2019-05-14T03:20:14.689Z,7.75
2019-05-14T03:23:01.388Z,7.67
2019-05-14T03:25:19.348Z,7.57
2019-05-14T03:27:50.541Z,7.68
2019-05-14T03:30:23.239Z,7.62
2019-05-14T03:32:54.309Z,7.50
2019-05-14T03:35:35.346Z,7.43
2019-05-14T03:38:00.445Z,7.26
2019-05-14T03:40:30.192Z,7.17
2019-05-14T03:43:01.245Z,7.34
2019-05-14T03:45:32.050Z,7.24
2019-05-14T03:48:03.102Z,7.11
2019-05-14T03:50:33.911Z,7.05
2019-05-14T03:53:04.656Z,6.90
2019-05-14T03:55:35.499Z,6.90
2019-05-14T03:58:09.684Z,6.82
2019-05-14T04:00:50.851Z,6.67
2019-05-14T04:03:22.306Z,6.70
2019-05-14T04:05:54.723Z,6.68
2019-05-14T04:08:29.330Z,6.55
2019-05-14T04:11:00.778Z,6.41
2019-05-14T04:13:33.125Z,6.45
2019-05-14T04:16:04.849Z,6.37
2019-05-14T04:18:40.293Z,6.28
2019-05-14T04:21:10.469Z,6.21
2019-05-14T04:23:45.127Z,6.19
2019-05-14T04:26:19.999Z,6.15
2019-05-14T04:28:51.566Z,6.04
2019-05-14T04:31:22.427Z,6.12
2019-05-14T04:33:54.703Z,6.06
2019-05-14T04:36:25.434Z,6.08
2019-05-14T04:39:00.306Z,6.13
2019-05-14T04:41:30.031Z,6.20
2019-05-14T04:44:00.898Z,6.08
2019-05-14T04:46:32.137Z,6.14
2019-05-14T04:49:03.232Z,6.21
2019-05-14T04:51:34.264Z,6.16
2019-05-14T04:54:09.180Z,6.23
2019-05-14T04:56:39.995Z,6.24
2019-05-14T04:59:11.037Z,6.41
2019-05-14T05:01:41.768Z,6.43
2019-05-14T05:04:13.117Z,6.45
2019-05-14T05:06:44.312Z,6.32
2019-05-14T05:09:15.309Z,6.28
2019-05-14T05:11:49.535Z,6.31
2019-05-14T05:14:23.163Z,6.26
2019-05-14T05:16:52.421Z,6.24
2019-05-14T05:19:23.868Z,6.27
2019-05-14T05:21:54.983Z,6.39
2019-05-14T05:24:28.725Z,6.48
2019-05-14T05:26:59.876Z,6.82
2019-05-14T05:29:30.894Z,7.17
2019-05-14T05:32:02.264Z,7.22
2019-05-14T05:34:33.282Z,7.23
2019-05-14T05:37:04.336Z,7.58
2019-05-14T05:39:35.072Z,7.72
2019-05-14T05:42:06.106Z,8.02
2019-05-14T05:44:39.124Z,8.01
2019-05-14T05:47:09.500Z,8.05
2019-05-14T05:49:40.642Z,8.03
2019-05-14T05:52:11.664Z,8.01
2019-05-14T05:54:42.888Z,8.10
2019-05-14T05:57:13.621Z,8.12
2019-05-14T05:59:44.380Z,8.47
2019-05-14T06:02:18.388Z,8.61
2019-05-14T06:04:48.927Z,8.70
2019-05-14T06:07:20.604Z,8.79
2019-05-14T06:09:51.607Z,8.95
2019-05-14T06:12:22.357Z,8.93
2019-05-14T06:14:53.408Z,9.13
2019-05-14T06:17:28.522Z,9.12
2019-05-14T06:19:59.559Z,9.22
2019-05-14T06:22:31.314Z,9.39
2019-05-14T06:25:20.446Z,9.37
2019-05-14T06:27:49.440Z,9.50
2019-05-14T06:30:32.041Z,9.69
2019-05-14T06:33:03.305Z,9.82
2019-05-14T06:35:35.612Z,9.80
2019-05-14T06:38:08.745Z,9.96
2019-05-14T06:40:39.649Z,10.08
2019-05-14T06:43:10.698Z,10.23
2019-05-14T06:45:41.688Z,10.19
2019-05-14T06:48:27.060Z,10.29
2019-05-14T06:50:45.186Z,10.35
2019-05-14T06:53:16.365Z,10.54
2019-05-14T06:55:48.421Z,10.60
2019-05-14T06:58:20.284Z,10.76
2019-05-14T07:00:51.218Z,11.13
2019-05-14T07:03:22.424Z,11.34
2019-05-14T07:05:53.446Z,11.82
2019-05-14T07:08:24.276Z,11.83
2019-05-14T07:10:55.101Z,11.83
2019-05-14T07:13:26.258Z,12.04
2019-05-14T07:15:58.445Z,11.72
2019-05-14T07:18:45.212Z,12.27
2019-05-14T07:21:02.296Z,12.51
2019-05-14T07:23:33.027Z,12.86
2019-05-14T07:26:03.776Z,13.00
2019-05-14T07:28:34.526Z,12.76
2019-05-14T07:31:05.325Z,13.05
2019-05-14T07:33:38.490Z,13.41
2019-05-14T07:36:08.933Z,14.04
2019-05-14T07:38:39.991Z,13.95
2019-05-14T07:41:11.280Z,13.94
2019-05-14T07:43:42.261Z,14.18
2019-05-14T07:46:13.019Z,13.85
2019-05-14T07:48:44.236Z,14.42
2019-05-14T07:51:15.250Z,14.87
2019-05-14T07:53:48.538Z,14.60
2019-05-14T07:56:19.064Z,14.71
2019-05-14T07:58:51.194Z,14.52
2019-05-14T08:01:22.269Z,14.31
2019-05-14T08:03:53.539Z,14.16
2019-05-14T08:06:24.510Z,14.35
2019-05-14T08:08:55.631Z,14.53
2019-05-14T08:11:28.086Z,14.29
2019-05-14T08:13:58.846Z,14.28
2019-05-14T08:16:29.872Z,13.88
2019-05-14T08:19:04.818Z,14.10
2019-05-14T08:21:34.023Z,14.16
2019-05-14T08:24:05.171Z,14.16
2019-05-14T08:26:38.045Z,14.34
2019-05-14T08:29:10.060Z,14.43
2019-05-14T08:31:40.987Z,14.05
2019-05-14T08:34:11.831Z,14.26
2019-05-14T08:36:42.658Z,14.14
2019-05-14T08:39:13.488Z,14.30
2019-05-14T08:41:44.314Z,14.50
2019-05-14T08:44:15.285Z,14.33
2019-05-14T08:46:48.646Z,14.41
2019-05-14T08:49:19.633Z,14.76
2019-05-14T08:51:50.373Z,14.86
2019-05-14T08:54:21.213Z,14.81
2019-05-14T08:56:52.113Z,14.80
2019-05-14T08:59:23.038Z,14.89
2019-05-14T09:02:01.751Z,14.74
2019-05-14T09:04:29.698Z,14.82
2019-05-14T09:06:59.126Z,15.35
2019-05-14T09:09:30.185Z,15.46
2019-05-14T09:12:01.163Z,15.15
2019-05-14T09:14:33.348Z,14.90
2019-05-14T09:17:05.724Z,15.48
2019-05-14T09:19:39.162Z,15.38
2019-05-14T09:22:09.789Z,15.38
2019-05-14T09:24:40.922Z,14.80
2019-05-14T09:27:11.753Z,14.83
2019-05-14T09:29:43.049Z,14.74
2019-05-14T09:32:13.823Z,15.24
2019-05-14T09:34:44.790Z,15.67
2019-05-14T09:37:19.303Z,15.60
2019-05-14T09:39:59.611Z,15.55
2019-05-14T09:42:33.725Z,15.24
2019-05-14T09:45:10.525Z,15.01
2019-05-14T09:47:43.490Z,14.42
2019-05-14T09:50:22.771Z,14.37
2019-05-14T09:52:56.330Z,14.42
2019-05-14T09:55:29.886Z,14.33
2019-05-14T09:58:05.225Z,14.50
2019-05-14T10:00:38.769Z,14.71
2019-05-14T10:03:09.851Z,14.25
2019-05-14T10:05:41.143Z,14.25
2019-05-14T10:08:11.910Z,14.27
2019-05-14T10:10:43.114Z,14.52
2019-05-14T10:13:13.964Z,14.48
2019-05-14T10:15:44.962Z,14.45
2019-05-14T10:18:16.295Z,14.99
2019-05-14T10:20:49.346Z,15.17
2019-05-14T10:23:20.126Z,15.52
2019-05-14T10:25:51.036Z,15.96
2019-05-14T10:28:21.801Z,16.40
2019-05-14T10:30:53.099Z,16.94
2019-05-14T10:33:24.277Z,16.49
2019-05-14T10:35:55.329Z,16.94
2019-05-14T10:50:04.313Z,15.73
2019-05-14T10:52:35.401Z,15.87
2019-05-14T10:55:08.053Z,15.71
2019-05-14T10:57:38.909Z,15.29
2019-05-14T11:00:09.930Z,15.66
2019-05-14T11:02:41.317Z,15.76
2019-05-14T11:05:12.203Z,15.05
2019-05-14T11:07:43.086Z,15.06
2019-05-14T11:10:14.274Z,14.69
2019-05-14T11:35:19.154Z,17.52
2019-05-14T11:37:50.265Z,17.98
2019-05-14T11:40:21.333Z,17.73
2019-05-14T11:42:52.857Z,18.06
2019-05-14T11:45:24.004Z,18.34
2019-05-14T11:47:55.066Z,17.51
2019-05-14T11:50:28.468Z,17.51
2019-05-14T11:52:58.721Z,17.90
2019-05-14T11:55:29.533Z,17.68
2019-05-14T11:58:00.501Z,18.18
2019-05-14T12:00:31.481Z,17.79
2019-05-14T12:03:02.562Z,18.14
2019-05-14T12:05:33.370Z,18.29
2019-05-14T12:08:04.357Z,18.35
2019-05-14T12:10:35.168Z,18.12
2019-05-14T12:13:08.553Z,18.44
2019-05-14T12:15:39.310Z,18.38
2019-05-14T12:18:10.645Z,18.65
2019-05-14T12:20:41.369Z,19.12
2019-05-14T12:23:12.364Z,18.84
2019-05-14T12:25:43.549Z,19.09
2019-05-14T12:28:14.463Z,18.34
2019-05-14T12:31:03.762Z,17.78
2019-05-14T12:33:34.582Z,16.49
2019-05-14T12:36:10.897Z,16.08
2019-05-14T12:38:42.853Z,16.21
2019-05-14T12:41:20.859Z,16.77
2019-05-14T12:44:00.291Z,17.86
2019-05-14T12:46:36.352Z,18.33
2019-05-14T12:49:11.685Z,18.98
2019-05-14T12:51:50.464Z,18.37
2019-05-14T12:54:24.223Z,17.61
2019-05-14T12:56:57.723Z,17.37
2019-05-14T12:59:38.059Z,17.07
2019-05-14T13:02:11.384Z,17.32
2019-05-14T13:04:44.159Z,17.89
2019-05-14T13:07:19.201Z,18.15
2019-05-14T13:09:53.506Z,18.26
2019-05-14T13:12:29.764Z,18.31
2019-05-14T13:15:08.583Z,18.28
2019-05-14T13:17:39.326Z,18.49
2019-05-14T13:20:14.003Z,18.84
2019-05-14T13:22:50.091Z,18.85
2019-05-14T13:25:21.391Z,19.14
2019-05-14T13:27:55.572Z,18.92
2019-05-14T13:30:33.476Z,19.05
2019-05-14T13:33:08.640Z,17.70
2019-05-14T13:35:41.905Z,16.99
2019-05-14T13:38:14.729Z,17.33
2019-05-14T13:40:49.821Z,17.21
2019-05-14T13:43:21.093Z,16.99
2019-05-14T13:45:51.858Z,17.36
2019-05-14T13:48:22.689Z,17.37
2019-05-14T13:50:53.429Z,17.72
2019-05-14T13:53:24.417Z,18.25
2019-05-14T13:55:57.491Z,18.59
2019-05-14T13:58:28.624Z,18.70
2019-05-14T14:00:59.962Z,18.49
2019-05-14T14:03:31.099Z,17.48
2019-05-14T14:06:02.803Z,16.75
2019-05-14T14:08:34.314Z,16.78
2019-05-14T14:11:05.337Z,17.69
2019-05-14T14:13:39.014Z,17.75
2019-05-14T14:16:14.789Z,18.02
2019-05-14T14:18:41.958Z,17.29
2019-05-14T14:21:12.932Z,16.77
2019-05-14T14:23:43.669Z,16.48
2019-05-14T14:26:14.657Z,16.71
2019-05-14T14:28:49.041Z,17.03
2019-05-14T14:31:19.203Z,17.26
2019-05-14T14:33:49.948Z,18.05
2019-05-14T14:36:20.939Z,17.95
2019-05-14T14:38:51.699Z,17.68
2019-05-14T14:41:23.243Z,17.01
2019-05-14T14:43:55.145Z,16.67
2019-05-14T14:46:28.580Z,16.24
2019-05-14T14:49:02.587Z,16.04
2019-05-14T14:51:31.867Z,15.98
2019-05-14T14:54:10.660Z,16.07
2019-05-14T14:56:37.963Z,15.97
2019-05-14T14:59:09.690Z,16.29
2019-05-14T15:01:40.762Z,16.30
2019-05-14T15:04:13.914Z,16.02
2019-05-14T15:06:44.820Z,15.66
2019-05-14T15:09:16.162Z,15.64
2019-05-14T15:11:48.955Z,15.75
2019-05-14T15:14:20.510Z,15.90
2019-05-14T15:16:51.212Z,16.28
2019-05-14T15:19:21.943Z,16.73
2019-05-14T15:21:52.728Z,17.41
2019-05-14T15:24:23.470Z,17.71
2019-05-14T15:26:54.348Z,17.19
2019-05-14T15:29:25.533Z,17.21
2019-05-14T15:31:59.061Z,17.08
2019-05-14T15:34:29.691Z,17.38
2019-05-14T15:37:00.854Z,17.60
2019-05-14T15:39:31.610Z,17.80
2019-05-14T15:42:05.115Z,17.28
2019-05-14T15:44:47.361Z,16.75
2019-05-14T15:47:11.543Z,16.27
2019-05-14T15:49:40.396Z,15.89
2019-05-14T15:52:11.290Z,15.59
2019-05-14T15:54:47.014Z,15.51
2019-05-14T15:57:14.580Z,15.53
2019-05-14T15:59:45.323Z,15.47
2019-05-14T16:02:19.870Z,16.06
2019-05-14T16:04:48.728Z,16.07
2019-05-14T16:07:19.483Z,16.14
2019-05-14T16:09:52.609Z,16.06
2019-05-14T16:12:23.606Z,16.08
2019-05-14T16:14:54.345Z,16.46
2019-05-14T16:17:26.887Z,16.60
2019-05-14T16:19:57.661Z,16.38
2019-05-14T16:22:29.283Z,16.64
2019-05-14T16:25:01.141Z,17.08
2019-05-14T16:27:33.173Z,17.54
2019-05-14T16:30:05.121Z,17.48
2019-05-14T16:32:39.145Z,17.23
2019-05-14T16:35:09.284Z,16.47
2019-05-14T16:37:40.322Z,15.95
2019-05-14T16:40:11.351Z,15.60
2019-05-14T16:42:42.325Z,15.28
2019-05-14T16:45:13.906Z,15.15
2019-05-14T16:47:45.143Z,14.94
2019-05-14T16:50:16.277Z,14.87
2019-05-14T16:52:49.258Z,14.56
2019-05-14T16:55:26.469Z,14.50
2019-05-14T16:57:52.467Z,15.37
2019-05-14T17:00:23.519Z,15.37
2019-05-14T17:02:54.269Z,16.65
2019-05-14T17:05:25.507Z,17.95
2019-05-14T17:07:58.734Z,18.59
2019-05-14T17:10:28.947Z,18.60
2019-05-14T17:13:01.842Z,18.74
2019-05-14T17:15:32.604Z,17.69
2019-05-14T17:18:03.641Z,16.84
2019-05-14T17:20:34.618Z,16.54
2019-05-14T17:23:05.668Z,16.01
2019-05-14T17:25:38.981Z,15.54
2019-05-14T17:28:09.324Z,15.07
2019-05-14T17:30:40.240Z,14.92
2019-05-14T17:33:10.976Z,14.68
2019-05-14T17:35:42.027Z,14.53
2019-05-14T17:38:12.779Z,13.95
2019-05-14T17:40:43.784Z,13.95
2019-05-14T17:43:15.287Z,13.71
2019-05-14T17:45:48.225Z,13.52
2019-05-14T17:48:19.041Z,13.43
2019-05-14T17:50:50.764Z,13.28
2019-05-14T17:53:21.505Z,12.94
2019-05-14T17:55:52.472Z,12.75
2019-05-14T17:58:24.186Z,12.50
2019-05-14T18:00:55.248Z,12.26
2019-05-14T18:03:25.998Z,12.16
2019-05-14T18:05:58.155Z,12.13
2019-05-14T18:08:30.115Z,11.91
2019-05-14T18:11:02.002Z,11.81
2019-05-14T18:13:33.408Z,11.75
2019-05-14T18:16:04.750Z,11.68
2019-05-14T18:18:35.607Z,11.50
2019-05-14T18:21:06.363Z,11.29
2019-05-14T18:23:41.297Z,11.10
2019-05-14T18:26:09.881Z,11.05
2019-05-14T18:28:40.902Z,10.88
2019-05-14T18:31:11.945Z,10.75
2019-05-14T18:33:42.999Z,10.57
2019-05-14T18:36:14.016Z,10.42
2019-05-14T18:38:45.489Z,10.26
2019-05-14T18:41:18.827Z,10.15
2019-05-14T18:43:49.562Z,9.97
2019-05-14T18:46:20.550Z,9.81
2019-05-14T18:48:51.518Z,9.70
2019-05-14T18:51:22.252Z,9.60
2019-05-14T18:53:53.240Z,9.45
2019-05-14T18:56:24.629Z,9.31
2019-05-14T18:58:56.360Z,9.21
2019-05-14T19:01:28.930Z,9.13
2019-05-14T19:04:00.967Z,9.11
2019-05-14T19:06:31.992Z,9.08
2019-05-14T19:09:04.643Z,9.09
2019-05-14T19:11:38.722Z,9.08
2019-05-14T19:14:10.087Z,8.96
2019-05-14T19:16:40.817Z,8.88
2019-05-14T19:19:11.563Z,8.77
2019-05-14T19:21:42.547Z,8.68
2019-05-14T19:24:13.316Z,8.67
2019-05-14T19:26:45.346Z,8.53
2019-05-14T19:29:18.497Z,8.51
2019-05-14T19:31:49.136Z,8.59
2019-05-14T19:34:19.883Z,8.59
2019-05-14T19:36:50.618Z,8.54
2019-05-14T19:39:21.611Z,8.58
2019-05-14T19:41:52.803Z,8.61
2019-05-14T19:44:23.579Z,8.75
2019-05-14T19:46:54.531Z,8.76
2019-05-14T19:49:25.534Z,8.68
2019-05-14T19:51:58.697Z,8.70
2019-05-14T19:54:29.322Z,8.65
2019-05-14T19:57:01.048Z,8.58
2019-05-14T19:59:32.254Z,8.60
2019-05-14T20:02:04.634Z,8.74
2019-05-14T20:04:35.644Z,8.72
2019-05-14T20:07:08.780Z,8.83
2019-05-14T20:09:39.060Z,8.86
2019-05-14T20:12:10.294Z,8.85
2019-05-14T20:14:41.019Z,8.80
2019-05-14T20:17:12.068Z,8.88
2019-05-14T20:19:42.796Z,8.71
2019-05-14T20:22:13.868Z,8.76
2019-05-14T20:24:44.925Z,8.69
2019-05-14T20:27:15.910Z,8.57
2019-05-14T20:29:48.695Z,8.51
2019-05-14T20:32:19.585Z,8.41
2019-05-14T20:34:50.560Z,8.42
2019-05-14T20:37:21.600Z,8.38
2019-05-14T20:39:52.320Z,8.34
2019-05-14T20:42:23.054Z,8.40
2019-05-14T20:44:53.771Z,8.35
2019-05-14T20:47:24.516Z,8.26
2019-05-14T20:49:55.247Z,8.16
2019-05-14T20:52:28.390Z,8.11
2019-05-14T20:54:59.408Z,8.16
2019-05-14T20:57:33.479Z,8.12
2019-05-14T21:00:02.994Z,8.16
2019-05-14T21:02:34.741Z,8.18
2019-05-14T21:05:13.006Z,8.33
2019-05-14T21:07:38.708Z,8.28
2019-05-14T21:10:10.732Z,8.12
2019-05-14T21:12:41.479Z,8.11
2019-05-14T21:15:12.375Z,8.15
2019-05-14T21:17:43.587Z,8.16
2019-05-14T21:20:15.689Z,8.12
2019-05-14T21:22:48.458Z,8.10
2019-05-14T21:25:19.548Z,8.00
2019-05-14T21:27:52.248Z,7.94
2019-05-14T21:30:23.438Z,7.88
2019-05-14T21:32:54.181Z,7.93
2019-05-14T21:35:25.149Z,8.08
2019-05-14T21:37:56.122Z,8.02
2019-05-14T21:40:31.668Z,7.86
2019-05-14T21:42:59.307Z,7.82
2019-05-14T21:45:30.527Z,7.71
2019-05-14T21:48:01.288Z,7.63
2019-05-14T21:50:32.241Z,7.57
2019-05-14T21:53:03.221Z,7.47
2019-05-14T21:55:33.969Z,7.46
2019-05-14T21:58:05.024Z,7.49
2019-05-14T22:00:42.171Z,7.45
2019-05-14T22:03:13.683Z,7.32
2019-05-14T22:05:44.488Z,7.28
2019-05-14T22:08:15.716Z,7.28
2019-05-14T22:10:48.725Z,7.29
2019-05-14T22:13:19.159Z,7.36
2019-05-14T22:15:50.891Z,7.39
2019-05-14T22:18:21.848Z,7.59
2019-05-14T22:20:52.596Z,7.61
2019-05-14T22:23:23.849Z,7.63
2019-05-14T22:25:58.125Z,7.83
2019-05-14T22:28:28.873Z,7.88
2019-05-14T22:30:59.608Z,7.83
2019-05-14T22:33:30.356Z,7.88
2019-05-14T22:36:01.083Z,7.78
2019-05-14T22:38:32.051Z,7.61
2019-05-14T22:41:02.855Z,7.57
2019-05-14T22:43:33.920Z,7.54
2019-05-14T22:46:04.652Z,7.48
2019-05-14T22:48:35.390Z,7.42
2019-05-14T22:51:08.516Z,7.32
2019-05-14T22:53:39.272Z,7.26
2019-05-14T22:56:10.735Z,7.25
2019-05-14T22:58:41.471Z,7.18
2019-05-14T23:01:15.128Z,7.21
2019-05-14T23:03:44.864Z,7.20
2019-05-14T23:06:15.816Z,7.25
2019-05-14T23:08:48.710Z,7.14
2019-05-14T23:11:19.702Z,7.05
2019-05-14T23:13:50.885Z,7.00
2019-05-14T23:16:33.396Z,6.97
2019-05-14T23:18:55.006Z,6.97
2019-05-14T23:21:28.217Z,6.90
2019-05-14T23:23:58.895Z,6.90
2019-05-14T23:26:29.848Z,6.85
2019-05-14T23:29:00.588Z,6.85
2019-05-14T23:31:32.287Z,6.79
2019-05-14T23:34:03.307Z,6.87
2019-05-14T23:36:33.997Z,6.86
2019-05-14T23:39:08.676Z,6.87
2019-05-14T23:41:39.583Z,6.81
2019-05-14T23:44:11.528Z,6.75
2019-05-14T23:46:42.251Z,6.77
2019-05-14T23:49:12.988Z,6.68
2019-05-14T23:51:44.211Z,6.79
2019-05-14T23:54:15.449Z,6.78
2019-05-14T23:56:48.743Z,6.73
2019-05-14T23:59:18.753Z,6.70
